Time;durP1;ratioP1;P1;durP2;ratioP2;P2;SDS_P1;SDS_P2;PMS_P1;PMS_P2;Temp;Humidity;BMP_temperature;BMP_pressure;BME280_temperature;BME280_humidity;BME280_pressure;Samples;Min_cycle;Max_cycle;Signal;HPM_P1;HPM_P2
2023/11/21 00:00:10;;;;;;;13.93;8.32;;;;;;;6.86;100.00;100336.09;5065795;28;20020;-74
2023/11/21 00:02:40;;;;;;;18.35;10.43;;;;;;;6.85;100.00;100344.19;5048078;28;20054;-74
2023/11/21 00:05:09;;;;;;;15.27;8.65;;;;;;;6.85;100.00;100338.88;5035920;28;20039;-74
2023/11/21 00:07:35;;;;;;;12.40;7.00;;;;;;;6.98;100.00;100369.41;5029450;28;20071;-74
2023/11/21 00:10:00;;;;;;;14.10;8.40;;;;;;;6.96;100.00;100371.34;5042492;28;20048;-74
2023/11/21 00:12:25;;;;;;;10.23;6.27;;;;;;;6.79;100.00;100339.47;5046983;28;20028;-74
2023/11/21 00:14:51;;;;;;;11.90;6.00;;;;;;;6.80;100.00;100351.75;5041783;28;20055;-74
2023/11/21 00:17:16;;;;;;;9.07;5.37;;;;;;;6.75;100.00;100355.69;5042307;28;20216;-74
2023/11/21 00:19:42;;;;;;;11.27;6.33;;;;;;;6.91;100.00;100388.72;5037810;28;20040;-74
2023/11/21 00:22:08;;;;;;;;;;;;;;;7.01;100.00;100397.47;5044223;28;20037;-74
2023/11/21 00:24:34;;;;;;;14.35;7.20;;;;;;;6.82;100.00;100363.06;5025297;28;19909;-74
2023/11/21 00:27:00;;;;;;;16.70;7.80;;;;;;;6.95;100.00;100372.34;5022793;28;20028;-74
2023/11/21 00:29:25;;;;;;;14.77;5.70;;;;;;;6.98;100.00;100377.34;5036666;28;20152;-75
2023/11/21 00:31:51;;;;;;;11.73;6.85;;;;;;;6.94;100.00;100385.75;5030240;28;20486;-74
2023/11/21 00:34:16;;;;;;;10.80;5.88;;;;;;;6.63;100.00;100358.69;5046492;28;20033;-74
2023/11/21 00:36:42;;;;;;;9.70;6.27;;;;;;;6.55;100.00;100364.72;5045035;28;20097;-74
2023/11/21 00:39:07;;;;;;;9.67;6.00;;;;;;;6.54;100.00;100377.13;5032178;28;20032;-74
2023/11/21 00:41:33;;;;;;;;;;;;;;;6.66;100.00;100404.31;5039751;28;20044;-74
2023/11/21 00:43:59;;;;;;;12.93;6.35;;;;;;;6.49;100.00;100387.34;5041680;28;19908;-74
2023/11/21 00:46:27;;;;;;;9.00;5.68;;;;;;;6.68;100.00;100407.66;5061906;28;20029;-74
2023/11/21 00:48:53;;;;;;;8.77;5.28;;;;;;;6.80;100.00;100424.22;5063529;28;20023;-74
2023/11/21 00:51:19;;;;;;;15.55;7.03;;;;;;;6.81;100.00;100425.88;5029908;28;20020;-74
2023/11/21 00:53:44;;;;;;;11.10;6.20;;;;;;;6.71;100.00;100422.44;5051410;28;20523;-74
2023/11/21 00:56:11;;;;;;;;;;;;;;;6.67;100.00;100451.09;5040279;28;20037;-74
2023/11/21 00:58:37;;;;;;;10.77;6.68;;;;;;;6.81;100.00;100476.31;5020168;28;20930;-74
2023/11/21 01:01:03;;;;;;;12.03;6.83;;;;;;;6.84;100.00;100488.47;5034515;28;20036;-74
2023/11/21 01:03:28;;;;;;;;;;;;;;;6.85;100.00;100498.09;5040396;28;20025;-75
2023/11/21 01:05:54;;;;;;;12.27;7.13;;;;;;;6.86;100.00;100515.69;5049214;28;20367;-74
2023/11/21 01:08:20;;;;;;;13.30;7.72;;;;;;;6.72;100.00;100509.88;5051509;28;20483;-74
2023/11/21 01:10:45;;;;;;;9.17;6.70;;;;;;;6.59;100.00;100503.19;5064699;28;20032;-74
2023/11/21 01:13:11;;;;;;;15.93;8.40;;;;;;;6.55;100.00;100534.47;5069126;28;20020;-74
2023/11/21 01:15:36;;;;;;;12.02;7.38;;;;;;;6.70;100.00;100559.59;5044217;28;20024;-73
2023/11/21 01:18:03;;;;;;;11.53;7.27;;;;;;;6.66;100.00;100558.19;5041895;28;20025;-74
2023/11/21 01:20:28;;;;;;;15.32;7.63;;;;;;;6.62;100.00;100558.59;5051375;28;20040;-74
2023/11/21 01:22:55;;;;;;;18.13;7.13;;;;;;;6.41;100.00;100564.06;5034025;28;20028;-74
2023/11/21 01:25:21;;;;;;;;;;;;;;;6.64;100.00;100597.28;5046216;28;20283;-74
2023/11/21 01:27:46;;;;;;;12.30;7.03;;;;;;;6.37;100.00;100578.56;5050857;28;19912;-75
2023/11/21 01:30:12;;;;;;;11.52;6.97;;;;;;;6.54;100.00;100623.81;5051245;28;20017;-74
2023/11/21 01:32:39;;;;;;;12.43;7.30;;;;;;;6.49;100.00;100620.75;5050794;28;20028;-75
2023/11/21 01:35:06;;;;;;;;;;;;;;;6.69;100.00;100632.19;5046235;28;20025;-74
2023/11/21 01:37:31;;;;;;;15.07;8.10;;;;;;;6.55;100.00;100624.66;5045759;28;19956;-74
2023/11/21 01:39:57;;;;;;;11.57;7.70;;;;;;;6.67;100.00;100647.44;5068685;28;20935;-74
2023/11/21 01:42:22;;;;;;;12.32;7.95;;;;;;;6.72;100.00;100657.63;5068603;28;20083;-74
2023/11/21 01:44:48;;;;;;;12.23;7.80;;;;;;;6.68;100.00;100656.22;5033948;28;20072;-74
2023/11/21 01:47:15;;;;;;;12.73;7.50;;;;;;;6.72;100.00;100658.44;5050845;28;20063;-74
2023/11/21 01:49:44;;;;;;;13.80;7.65;;;;;;;6.70;100.00;100655.09;5050913;28;20097;-74
2023/11/21 01:52:11;;;;;;;14.98;7.80;;;;;;;6.68;100.00;100643.78;5043924;28;20036;-74
2023/11/21 01:54:37;;;;;;;13.73;7.93;;;;;;;6.64;100.00;100631.75;5024004;28;20116;-74
2023/11/21 01:57:06;;;;;;;12.48;7.07;;;;;;;6.74;100.00;100645.88;5050671;28;20372;-75
2023/11/21 01:59:37;;;;;;;13.18;7.72;;;;;;;6.84;100.00;100653.00;5050208;28;20108;-74
2023/11/21 02:02:06;;;;;;;11.73;7.10;;;;;;;6.79;100.00;100652.56;5033282;28;20090;-74
2023/11/21 02:04:34;;;;;;;15.02;8.77;;;;;;;6.67;100.00;100655.38;5050462;28;20495;-74
2023/11/21 02:06:59;;;;;;;;;;;;;;;6.83;100.00;100675.19;5050673;28;20024;-74
2023/11/21 02:09:27;;;;;;;13.93;8.70;;;;;;;6.89;100.00;100672.00;5050375;28;19997;-74
2023/11/21 02:11:56;;;;;;;16.00;8.88;;;;;;;6.76;100.00;100667.78;5033360;28;20692;-74
2023/11/21 02:14:22;;;;;;;14.93;9.25;;;;;;;6.75;100.00;100674.09;5050191;28;20028;-75
2023/11/21 02:16:51;;;;;;;16.57;9.23;;;;;;;6.81;100.00;100693.06;5050361;28;20040;-74
2023/11/21 02:19:25;;;;;;;15.63;8.98;;;;;;;6.83;100.00;100693.78;5046510;28;20349;-74
2023/11/21 02:21:52;;;;;;;14.35;9.77;;;;;;;6.86;100.00;100707.63;5047843;28;20452;-74
2023/11/21 02:24:21;;;;;;;16.63;9.93;;;;;;;6.91;100.00;100705.38;5023982;28;21441;-74
2023/11/21 02:26:48;;;;;;;12.70;8.48;;;;;;;6.88;100.00;100700.34;5048225;28;20032;-74
2023/11/21 02:29:16;;;;;;;16.38;8.10;;;;;;;6.89;100.00;100702.03;5042543;28;20036;-74
2023/11/21 02:31:47;;;;;;;17.50;9.35;;;;;;;6.87;100.00;100703.13;5043317;28;20019;-74
2023/11/21 02:34:14;;;;;;;12.07;8.65;;;;;;;6.87;100.00;100719.91;5048231;28;20029;-74
2023/11/21 02:36:42;;;;;;;18.17;8.93;;;;;;;6.92;100.00;100716.81;5039206;28;20036;-74
2023/11/21 02:39:08;;;;;;;;;;;;;;;6.90;100.00;100722.25;5043203;28;20043;-74
2023/11/21 02:41:34;;;;;;;17.05;9.57;;;;;;;6.91;100.00;100728.44;5050495;28;20294;-74
2023/11/21 02:43:59;;;;;;;;;;;;;;;6.87;100.00;100725.22;5041787;28;20108;-74
2023/11/21 02:46:25;;;;;;;19.35;10.15;;;;;;;6.88;100.00;100721.59;5020261;28;20364;-74
2023/11/21 02:48:51;;;;;;;16.60;10.47;;;;;;;6.84;100.00;100719.34;5038419;28;20039;-74
2023/11/21 02:51:16;;;;;;;22.25;11.90;;;;;;;6.85;100.00;100721.00;5049445;28;20439;-74
2023/11/21 02:53:41;;;;;;;19.27;12.63;;;;;;;6.80;100.00;100715.28;5025508;28;20060;-75
2023/11/21 02:56:07;;;;;;;19.37;10.90;;;;;;;6.85;100.00;100728.97;5048878;28;20399;-74
2023/11/21 02:58:33;;;;;;;20.73;10.90;;;;;;;6.80;100.00;100718.78;5018828;28;20283;-74
2023/11/21 03:00:58;;;;;;;20.13;10.82;;;;;;;6.73;100.00;100715.84;5014204;28;20024;-74
2023/11/21 03:03:24;;;;;;;18.17;11.13;;;;;;;6.75;100.00;100731.63;5067030;28;20471;-74
2023/11/21 03:05:50;;;;;;;15.95;9.63;;;;;;;6.70;100.00;100739.16;5067080;28;20135;-74
2023/11/21 03:08:15;;;;;;;20.63;10.53;;;;;;;6.40;100.00;100726.81;5029605;28;20702;-74
2023/11/21 03:10:41;;;;;;;17.23;10.57;;;;;;;6.55;100.00;100765.22;5017057;28;20399;-74
2023/11/21 03:13:06;;;;;;;20.33;11.07;;;;;;;6.68;100.00;100778.25;5015077;28;20136;-74
2023/11/21 03:15:32;;;;;;;15.43;9.17;;;;;;;6.70;100.00;100787.75;5049667;28;20493;-74
2023/11/21 03:17:58;;;;;;;13.45;9.35;;;;;;;6.72;100.00;100784.97;5029216;28;20076;-74
2023/11/21 03:20:23;;;;;;;14.20;8.63;;;;;;;6.70;100.00;100795.72;5020838;28;20052;-74
2023/11/21 03:22:48;;;;;;;16.33;8.90;;;;;;;6.53;100.00;100778.66;5045173;28;20032;-76
2023/11/21 03:25:17;;;;;;;14.30;8.73;;;;;;;6.53;100.00;100789.25;5029011;28;20060;-74
2023/11/21 03:27:44;;;;;;;14.45;9.07;;;;;;;6.58;100.00;100796.81;5048889;28;20028;-75
2023/11/21 03:30:10;;;;;;;14.48;9.20;;;;;;;6.67;100.00;100803.97;5048786;28;20024;-74
2023/11/21 03:32:36;;;;;;;14.27;8.43;;;;;;;6.64;100.00;100798.91;5048447;28;20086;-74
2023/11/21 03:35:02;;;;;;;14.30;8.48;;;;;;;6.66;100.00;100804.91;5048603;28;20028;-74
2023/11/21 03:37:27;;;;;;;12.20;8.13;;;;;;;6.68;100.00;100810.09;5048859;28;20033;-75
2023/11/21 03:39:55;;;;;;;15.45;7.85;;;;;;;6.66;100.00;100820.00;5066478;28;20107;-74
2023/11/21 03:42:20;;;;;;;12.13;6.88;;;;;;;6.62;100.00;100814.13;5048373;28;20021;-74
2023/11/21 03:44:45;;;;;;;11.55;7.57;;;;;;;6.64;100.00;100809.50;5048670;28;20021;-74
2023/11/21 03:47:11;;;;;;;10.83;7.20;;;;;;;6.65;100.00;100808.56;5023622;28;20797;-74
2023/11/21 03:49:37;;;;;;;9.30;6.73;;;;;;;6.66;100.00;100817.34;5066668;28;20029;-74
2023/11/21 03:52:03;;;;;;;;;;;;;;;6.65;100.00;100808.56;5015357;28;20702;-75
2023/11/21 03:54:31;;;;;;;13.95;8.05;;;;;;;6.61;100.00;100801.84;5018328;28;19909;-75
2023/11/21 03:56:56;;;;;;;13.70;8.57;;;;;;;6.51;100.00;100793.84;5063970;28;20033;-74
2023/11/21 03:59:24;;;;;;;12.20;7.97;;;;;;;6.57;100.00;100803.06;5019326;28;20064;-74
2023/11/21 04:01:50;;;;;;;13.82;8.05;;;;;;;6.59;100.00;100806.44;5048124;28;20048;-75
2023/11/21 04:04:15;;;;;;;10.57;7.32;;;;;;;6.60;100.00;100804.63;5057549;28;20514;-75
2023/11/21 04:06:41;;;;;;;21.97;7.33;;;;;;;6.42;100.00;100785.88;5016543;28;20032;-74
2023/11/21 04:09:06;;;;;;;13.23;7.30;;;;;;;6.51;100.00;100800.97;5064956;28;20036;-74
2023/11/21 04:11:31;;;;;;;14.97;8.37;;;;;;;6.51;100.00;100803.63;5047732;28;20402;-74
2023/11/21 04:13:57;;;;;;;15.73;9.60;;;;;;;6.59;100.00;100806.44;5014525;28;20033;-75
2023/11/21 04:16:22;;;;;;;17.87;8.63;;;;;;;6.52;100.00;100800.00;5018946;28;20025;-74
2023/11/21 04:18:49;;;;;;;16.87;8.23;;;;;;;6.58;100.00;100799.47;5054012;28;20681;-74
2023/11/21 04:21:14;;;;;;;19.35;9.63;;;;;;;6.59;100.00;100803.78;5047559;28;20784;-74
2023/11/21 04:23:40;;;;;;;14.33;9.13;;;;;;;6.58;100.00;100799.47;5065421;28;20031;-74
2023/11/21 04:26:05;;;;;;;16.45;9.77;;;;;;;6.60;100.00;100797.50;5066017;28;20478;-75
2023/11/21 04:28:31;;;;;;;16.77;7.80;;;;;;;6.58;100.00;100791.50;5027943;28;20585;-74
2023/11/21 04:30:56;;;;;;;12.30;8.68;;;;;;;6.55;100.00;100795.28;5047677;28;20067;-74
2023/11/21 04:33:22;;;;;;;15.47;8.07;;;;;;;6.58;100.00;100799.47;5065759;28;20052;-75
2023/11/21 04:35:48;;;;;;;17.92;8.63;;;;;;;6.58;100.00;100794.16;5048168;28;20048;-75
2023/11/21 04:38:13;;;;;;;13.02;7.90;;;;;;;6.56;100.00;100798.75;5022685;28;20087;-74
2023/11/21 04:40:39;;;;;;;13.15;7.60;;;;;;;6.57;100.00;100796.94;5047648;28;20089;-74
2023/11/21 04:43:04;;;;;;;12.73;7.55;;;;;;;6.57;100.00;100800.41;5030635;28;20032;-75
2023/11/21 04:45:30;;;;;;;12.40;7.67;;;;;;;6.55;100.00;100799.72;5047957;28;20055;-74
2023/11/21 04:47:55;;;;;;;11.03;6.50;;;;;;;6.59;100.00;100801.13;5018521;28;20059;-74
2023/11/21 04:50:21;;;;;;;12.10;6.68;;;;;;;6.52;100.00;100790.22;5065687;28;20032;-74
2023/11/21 04:52:47;;;;;;;9.63;6.38;;;;;;;6.52;100.00;100792.03;5047380;28;20183;-74
2023/11/21 04:55:12;;;;;;;11.75;5.78;;;;;;;6.44;100.00;100773.28;5065425;28;20029;-76
2023/11/21 04:57:38;;;;;;;12.37;6.43;;;;;;;6.56;100.00;100785.50;5037375;28;20119;-74
2023/11/21 05:00:05;;;;;;;8.55;5.65;;;;;;;6.54;100.00;100779.47;5044271;28;20031;-74
2023/11/21 05:02:38;;;;;;;11.20;6.10;;;;;;;6.59;100.00;100779.91;5027526;28;20454;-74
2023/11/21 05:05:05;;;;;;;8.45;5.43;;;;;;;6.48;100.00;100772.06;5035777;28;20403;-74
2023/11/21 05:07:31;;;;;;;16.13;6.20;;;;;;;6.53;100.00;100772.47;5037762;28;20020;-74
2023/11/21 05:09:57;;;;;;;;;;;;;;;6.46;100.00;100771.34;5047293;28;20025;-75
2023/11/21 05:12:23;;;;;;;9.75;5.53;;;;;;;6.43;100.00;100771.63;5057737;28;19922;-74
2023/11/21 05:14:48;;;;;;;;;;;;;;;6.54;100.00;100784.78;5011716;28;20021;-74
2023/11/21 05:17:14;;;;;;;9.77;4.32;;;;;;;6.51;100.00;100782.41;5056948;28;20010;-74
2023/11/21 05:19:40;;;;;;;11.40;5.82;;;;;;;6.40;100.00;100769.25;5047721;28;20052;-74
2023/11/21 05:22:05;;;;;;;7.40;4.57;;;;;;;6.44;100.00;100765.34;5030409;28;20059;-74
2023/11/21 05:24:31;;;;;;;9.07;4.38;;;;;;;6.40;100.00;100775.38;5060987;28;20056;-74
2023/11/21 05:26:56;;;;;;;10.35;5.00;;;;;;;6.43;100.00;100782.22;5055785;28;20827;-75
2023/11/21 05:29:22;;;;;;;8.73;4.33;;;;;;;6.39;100.00;100773.72;5039314;28;20036;-75
2023/11/21 05:31:47;;;;;;;8.40;4.32;;;;;;;6.36;100.00;100789.03;5045143;28;20511;-74
2023/11/21 05:34:12;;;;;;;9.10;4.23;;;;;;;6.36;100.00;100791.69;5029797;28;20060;-74
2023/11/21 05:36:38;;;;;;;9.23;5.03;;;;;;;6.38;100.00;100793.25;5041901;28;20056;-74
2023/11/21 05:39:04;;;;;;;7.80;4.67;;;;;;;6.40;100.00;100801.06;5068799;28;20032;-75
2023/11/21 05:41:29;;;;;;;8.70;5.43;;;;;;;6.43;100.00;100811.41;5025925;28;20028;-74
2023/11/21 05:43:55;;;;;;;9.25;4.68;;;;;;;6.41;100.00;100805.38;5050528;28;20032;-74
2023/11/21 05:46:20;;;;;;;8.03;4.43;;;;;;;6.47;100.00;100818.13;5068192;28;20081;-74
2023/11/21 05:48:46;;;;;;;7.73;4.33;;;;;;;6.50;100.00;100812.53;5068618;28;20031;-74
2023/11/21 05:51:12;;;;;;;8.50;3.83;;;;;;;6.42;100.00;100807.09;5050108;28;20091;-75
2023/11/21 05:53:37;;;;;;;;;;;;;;;6.49;100.00;100816.19;5024249;28;20120;-74
2023/11/21 05:56:03;;;;;;;12.48;5.55;;;;;;;6.44;100.00;100805.13;5048670;28;19999;-74
2023/11/21 05:58:29;;;;;;;11.23;4.05;;;;;;;6.37;100.00;100807.50;5045306;28;20112;-75
2023/11/21 06:00:54;;;;;;;7.25;4.90;;;;;;;6.46;100.00;100808.47;5056743;28;20028;-74
2023/11/21 06:03:19;;;;;;;6.73;4.23;;;;;;;6.17;100.00;100773.91;5050305;28;20074;-74
2023/11/21 06:05:45;;;;;;;12.20;4.63;;;;;;;6.26;100.00;100792.50;5068510;28;20028;-76
2023/11/21 06:08:10;;;;;;;7.57;3.97;;;;;;;6.38;100.00;100805.66;5066008;28;20027;-74
2023/11/21 06:10:36;;;;;;;8.63;4.47;;;;;;;6.30;100.00;100787.78;5044280;28;20602;-74
2023/11/21 06:13:01;;;;;;;8.97;4.30;;;;;;;6.31;100.00;100787.63;5017814;28;20037;-74
2023/11/21 06:15:26;;;;;;;9.50;4.83;;;;;;;6.34;100.00;100792.69;5068411;28;20287;-74
2023/11/21 06:17:52;;;;;;;7.83;4.30;;;;;;;6.35;100.00;100782.91;5034332;28;20037;-75
2023/11/21 06:20:18;;;;;;;7.35;4.88;;;;;;;6.34;100.00;100776.78;5068005;28;20122;-75
2023/11/21 06:22:46;;;;;;;9.35;5.28;;;;;;;6.31;100.00;100778.84;5064516;28;20064;-74
2023/11/21 06:25:13;;;;;;;7.60;4.43;;;;;;;6.27;100.00;100786.22;5033370;28;20047;-75
2023/11/21 06:27:46;;;;;;;6.65;5.05;;;;;;;6.15;100.00;100779.31;5049873;28;20099;-74
2023/11/21 06:30:13;;;;;;;32.83;6.07;;;;;;;6.07;100.00;100779.16;5032772;28;20160;-75
2023/11/21 06:32:39;;;;;;;8.52;5.22;;;;;;;6.15;100.00;100812.97;5049417;28;20055;-74
2023/11/21 06:35:06;;;;;;;7.60;4.68;;;;;;;6.14;100.00;100809.47;5049886;28;20475;-74
2023/11/21 06:37:32;;;;;;;7.95;5.55;;;;;;;6.14;100.00;100817.44;5067970;28;20021;-75
2023/11/21 06:39:58;;;;;;;6.03;4.53;;;;;;;6.11;100.00;100809.72;5067672;28;20047;-75
2023/11/21 06:42:24;;;;;;;10.20;5.70;;;;;;;6.07;100.00;100810.97;5021489;28;20037;-75
2023/11/21 06:45:10;;;;;;;10.80;4.95;;;;;;;6.16;100.00;100831.41;5045463;28;20604;-74
2023/11/21 06:47:36;;;;;;;10.30;4.93;;;;;;;6.11;100.00;100830.94;5044367;28;20457;-75
2023/11/21 06:50:01;;;;;;;11.05;6.03;;;;;;;6.13;100.00;100842.25;5049084;28;20024;-74
2023/11/21 06:52:27;;;;;;;9.52;5.22;;;;;;;6.09;100.00;100846.97;5066899;28;20074;-74
2023/11/21 06:54:52;;;;;;;17.87;6.33;;;;;;;6.08;100.00;100847.94;5067426;28;20025;-74
2023/11/21 06:57:18;;;;;;;12.80;6.60;;;;;;;6.00;100.00;100842.47;5017820;28;20622;-74
2023/11/21 06:59:44;;;;;;;10.50;5.38;;;;;;;6.01;100.00;100865.31;5049831;28;20063;-73
2023/11/21 07:02:09;;;;;;;7.47;5.05;;;;;;;6.10;100.00;100863.72;5049023;28;20029;-74
2023/11/21 07:04:35;;;;;;;8.37;5.20;;;;;;;6.10;100.00;100858.41;5049096;28;20399;-74
2023/11/21 07:07:02;;;;;;;9.80;5.53;;;;;;;5.95;100.00;100854.41;5048754;28;20297;-74
2023/11/21 07:09:28;;;;;;;9.60;4.75;;;;;;;6.03;100.00;100875.81;5049414;28;20102;-74
2023/11/21 07:11:54;;;;;;;16.97;5.37;;;;;;;6.03;100.00;100871.34;5049182;28;20040;-73
2023/11/21 07:14:19;;;;;;;12.25;5.30;;;;;;;6.07;100.00;100885.19;5015732;28;20638;-74
2023/11/21 07:16:48;;;;;;;13.80;5.63;;;;;;;6.05;100.00;100873.88;5049499;28;20031;-74
2023/11/21 07:19:14;;;;;;;9.35;5.22;;;;;;;6.13;100.00;100877.56;5049180;28;20086;-74
2023/11/21 07:21:40;;;;;;;12.15;6.28;;;;;;;6.16;100.00;100872.94;5048019;28;20527;-74
2023/11/21 07:24:06;;;;;;;16.00;7.40;;;;;;;6.03;100.00;100863.41;5047927;28;20277;-74
2023/11/21 07:26:33;;;;;;;6.57;4.63;;;;;;;6.10;100.00;100888.41;5066627;28;20036;-75
2023/11/21 07:29:00;;;;;;;13.30;5.07;;;;;;;6.16;100.00;100889.72;5023454;28;20017;-74
2023/11/21 07:31:26;;;;;;;10.93;5.75;;;;;;;6.18;100.00;100897.53;5066712;28;20032;-74
2023/11/21 07:33:51;;;;;;;7.75;5.35;;;;;;;6.19;100.00;100876.19;5066958;28;20078;-74
2023/11/21 07:36:23;;;;;;;9.50;5.13;;;;;;;6.18;100.00;100892.22;5016654;28;20080;-75
2023/11/21 07:38:49;;;;;;;14.48;5.80;;;;;;;6.20;100.00;100899.06;5049097;28;20174;-75
2023/11/21 07:41:17;;;;;;;8.57;5.97;;;;;;;6.20;100.00;100891.13;5033185;28;20036;-74
2023/11/21 07:43:46;;;;;;;11.07;5.75;;;;;;;6.27;100.00;100892.28;5042398;28;20041;-74
2023/11/21 07:46:13;;;;;;;10.07;4.82;;;;;;;6.23;100.00;100882.09;5056260;28;20058;-74
2023/11/21 07:48:42;;;;;;;9.95;6.03;;;;;;;6.32;100.00;100903.34;5036017;28;20568;-74
2023/11/21 07:51:08;;;;;;;15.63;6.00;;;;;;;6.24;100.00;100881.94;5058714;28;20040;-74
2023/11/21 07:53:34;;;;;;;;;;;;;;;6.34;100.00;100898.75;5032212;28;20033;-74
2023/11/21 07:56:03;;;;;;;9.50;5.28;;;;;;;6.22;100.00;100881.22;5057032;28;19918;-74
2023/11/21 07:58:29;;;;;;;7.15;5.07;;;;;;;6.24;100.00;100897.00;5050649;28;20427;-74
2023/11/21 08:00:54;;;;;;;7.10;4.90;;;;;;;6.29;100.00;100892.97;5033831;28;20086;-73
2023/11/21 08:03:20;;;;;;;7.97;4.37;;;;;;;6.28;100.00;100893.97;5057519;28;20033;-74
2023/11/21 08:05:46;;;;;;;;;;;;;;;6.34;100.00;100908.50;5061752;28;20087;-74
2023/11/21 08:08:11;;;;;;;9.82;6.00;;;;;;;6.28;100.00;100899.28;5046572;28;20405;-74
2023/11/21 08:10:37;;;;;;;8.07;4.67;;;;;;;6.42;100.00;100910.53;5066022;28;20060;-74
2023/11/21 08:13:03;;;;;;;17.27;5.60;;;;;;;6.52;100.00;100920.19;5065978;28;20506;-75
2023/11/21 08:15:29;;;;;;;9.63;6.00;;;;;;;6.53;100.00;100913.06;5065876;28;20811;-74
2023/11/21 08:17:54;;;;;;;8.73;5.43;;;;;;;6.61;100.00;100910.59;5048163;28;20028;-74
2023/11/21 08:20:22;;;;;;;10.37;5.30;;;;;;;6.65;100.00;100916.47;5065974;28;20016;-75
2023/11/21 08:22:48;;;;;;;13.25;5.90;;;;;;;6.55;100.00;100909.34;5047455;28;20033;-74
2023/11/21 08:25:13;;;;;;;10.20;6.00;;;;;;;6.43;100.00;100904.22;5065790;28;20037;-74
2023/11/21 08:27:39;;;;;;;8.25;4.93;;;;;;;6.49;100.00;100911.66;5047364;28;20039;-74
2023/11/21 08:30:05;;;;;;;9.48;4.63;;;;;;;6.57;100.00;100919.78;5065811;28;20036;-74
2023/11/21 08:32:32;;;;;;;9.80;4.57;;;;;;;6.59;100.00;100895.78;5020560;28;20032;-74
2023/11/21 08:35:01;;;;;;;7.35;4.90;;;;;;;6.62;100.00;100906.97;5062680;28;20124;-74
2023/11/21 08:37:30;;;;;;;9.95;4.68;;;;;;;6.70;100.00;100914.28;5020686;28;20020;-75
2023/11/21 08:39:59;;;;;;;9.52;4.93;;;;;;;6.29;100.00;100842.59;5037730;28;20025;-74
2023/11/21 08:42:24;;;;;;;8.38;4.60;;;;;;;6.59;100.00;100903.75;5040065;28;20119;-74
2023/11/21 08:44:51;;;;;;;10.73;4.97;;;;;;;6.79;100.00;100928.53;5064901;28;20133;-74
2023/11/21 08:47:16;;;;;;;11.68;5.10;;;;;;;6.90;100.00;100923.97;5047891;28;20537;-74
2023/11/21 08:49:42;;;;;;;6.70;4.13;;;;;;;6.86;100.00;100927.03;5065892;28;20020;-76
2023/11/21 08:52:08;;;;;;;6.88;4.68;;;;;;;6.88;100.00;100919.78;5064418;28;20043;-75
2023/11/21 08:54:34;;;;;;;8.65;4.95;;;;;;;6.86;100.00;100900.50;5056328;28;20064;-74
2023/11/21 08:57:00;;;;;;;6.43;4.55;;;;;;;6.81;100.00;100884.97;5046785;28;20051;-74
2023/11/21 08:59:26;;;;;;;7.55;5.00;;;;;;;6.71;100.00;100861.06;5047902;28;20040;-74
2023/11/21 09:01:51;;;;;;;7.35;5.18;;;;;;;6.78;100.00;100864.03;5065340;28;20036;-75
2023/11/21 09:04:17;;;;;;;8.13;4.07;;;;;;;6.81;100.00;100866.41;5065340;28;20036;-75
2023/11/21 09:06:42;;;;;;;5.80;4.23;;;;;;;6.89;100.00;100886.97;5034526;28;20025;-74
2023/11/21 09:09:10;;;;;;;10.00;3.63;;;;;;;6.87;100.00;100881.78;5064231;28;20483;-74
2023/11/21 09:11:35;;;;;;;9.15;4.32;;;;;;;6.80;100.00;100885.13;5068432;28;20020;-74
2023/11/21 09:14:01;;;;;;;5.95;3.90;;;;;;;6.74;100.00;100871.44;5069197;28;20127;-74
2023/11/21 09:16:26;;;;;;;8.48;4.55;;;;;;;6.83;100.00;100896.28;5069843;28;20040;-73
2023/11/21 09:18:52;;;;;;;8.50;4.23;;;;;;;6.70;100.00;100854.09;5031625;28;20044;-74
2023/11/21 09:21:17;;;;;;;8.30;4.33;;;;;;;6.86;100.00;100876.59;5051093;28;20024;-74
2023/11/21 09:23:46;;;;;;;8.48;3.80;;;;;;;6.89;100.00;100881.66;5050733;28;20028;-73
2023/11/21 09:26:12;;;;;;;7.00;3.67;;;;;;;6.90;100.00;100880.69;5034316;28;20556;-74
2023/11/21 09:28:38;;;;;;;7.57;4.68;;;;;;;6.90;100.00;100888.63;5051580;28;20436;-74
2023/11/21 09:31:04;;;;;;;4.85;3.20;;;;;;;6.85;100.00;100880.25;5067815;28;20033;-74
2023/11/21 09:33:31;;;;;;;5.75;3.30;;;;;;;6.86;100.00;100860.69;5049962;28;20074;-74
2023/11/21 09:35:56;;;;;;;4.25;2.95;;;;;;;6.95;100.00;100886.41;5043174;28;20045;-74
2023/11/21 09:38:22;;;;;;;5.63;3.05;;;;;;;6.89;100.00;100861.25;5051130;28;20039;-73
2023/11/21 09:40:47;;;;;;;6.17;3.03;;;;;;;6.92;100.00;100849.53;5020700;28;20564;-74
2023/11/21 09:43:17;;;;;;;5.40;2.88;;;;;;;6.92;100.00;100844.22;5042733;28;20495;-73
2023/11/21 09:45:47;;;;;;;6.28;3.00;;;;;;;6.89;100.00;100828.59;5049926;28;20242;-73
2023/11/21 09:48:14;;;;;;;6.05;3.00;;;;;;;6.92;100.00;100836.25;5050660;28;20052;-74
2023/11/21 09:50:42;;;;;;;6.43;2.33;;;;;;;6.82;100.00;100838.06;5049607;28;20111;-74
2023/11/21 09:53:16;;;;;;;8.32;3.70;;;;;;;6.87;100.00;100868.53;5045437;28;20036;-74
2023/11/21 09:55:47;;;;;;;5.75;3.10;;;;;;;6.94;100.00;100884.75;5066341;28;20084;-74
2023/11/21 09:58:14;;;;;;;5.90;3.40;;;;;;;6.96;100.00;100882.81;5026645;28;20037;-74
2023/11/21 10:00:52;;;;;;;9.50;4.00;;;;;;;6.98;100.00;100904.75;5026082;28;20488;-74
2023/11/21 10:03:18;;;;;;;6.00;3.95;;;;;;;7.13;100.00;100921.97;5057873;28;20040;-74
2023/11/21 10:05:45;;;;;;;4.93;3.40;;;;;;;7.09;100.00;100896.66;5024752;28;20395;-74
2023/11/21 10:08:12;;;;;;;10.05;3.10;;;;;;;7.11;100.00;100877.94;5050457;28;20124;-74
2023/11/21 10:10:44;;;;;;;6.13;3.92;;;;;;;6.67;100.00;100758.84;5068193;28;20078;-74
2023/11/21 10:13:12;;;;;;;4.78;3.20;;;;;;;6.93;100.00;100824.66;5030832;28;20035;-74
2023/11/21 10:15:38;;;;;;;11.88;3.50;;;;;;;6.89;100.00;100817.97;5061618;28;20495;-73
2023/11/21 10:18:05;;;;;;;5.03;3.22;;;;;;;6.81;100.00;100757.59;5068432;28;20120;-74
2023/11/21 10:20:31;;;;;;;6.32;3.63;;;;;;;6.81;100.00;100756.75;5047038;28;20044;-74
2023/11/21 10:22:57;;;;;;;;;;;;;;;6.92;100.00;100788.50;5055105;28;20164;-74
2023/11/21 10:25:22;;;;;;;5.28;3.65;;;;;;;7.01;100.00;100779.69;5026972;28;19976;-74
2023/11/21 10:27:52;;;;;;;7.32;4.53;;;;;;;7.07;100.00;100813.66;5038952;28;20036;-73
2023/11/21 10:30:17;;;;;;;5.25;3.50;;;;;;;6.94;100.00;100775.91;5060631;28;20034;-74
2023/11/21 10:32:43;;;;;;;4.43;3.17;;;;;;;7.03;100.00;100785.72;5044275;28;20016;-74
2023/11/21 10:35:10;;;;;;;6.22;3.53;;;;;;;6.88;100.00;100747.25;5058656;28;20395;-74
2023/11/21 10:37:39;;;;;;;6.57;4.13;;;;;;;6.85;100.00;100753.69;5038421;28;20035;-74
2023/11/21 10:40:11;;;;;;;9.02;3.90;;;;;;;6.92;100.00;100777.88;5047868;28;20568;-74
2023/11/21 10:42:41;;;;;;;5.25;3.53;;;;;;;6.92;100.00;100767.25;5044295;28;20032;-74
2023/11/21 10:45:14;;;;;;;8.20;4.00;;;;;;;7.02;100.00;100812.38;5048451;28;20036;-73
2023/11/21 10:47:42;;;;;;;5.95;3.50;;;;;;;6.96;100.00;100803.16;5041955;28;20028;-74
2023/11/21 10:50:15;;;;;;;5.63;3.72;;;;;;;6.84;100.00;100783.03;5048198;28;20044;-73
2023/11/21 10:52:43;;;;;;;5.88;3.65;;;;;;;7.00;100.00;100817.84;5049645;28;20036;-73
2023/11/21 10:55:21;;;;;;;7.53;4.07;;;;;;;7.01;100.00;100802.75;5049695;28;20055;-74
2023/11/21 10:57:53;;;;;;;6.40;3.55;;;;;;;6.84;100.00;100751.19;5024955;28;20573;-73
2023/11/21 11:00:20;;;;;;;4.93;3.00;;;;;;;6.83;100.00;100722.97;5033031;28;20473;-74
2023/11/21 11:02:49;;;;;;;7.43;3.63;;;;;;;6.86;100.00;100696.13;5040232;28;20119;-74
2023/11/21 11:05:19;;;;;;;5.43;2.90;;;;;;;6.85;100.00;100689.16;5049223;28;20100;-74
2023/11/21 11:07:47;;;;;;;7.07;3.80;;;;;;;6.83;100.00;100676.03;5049858;28;20123;-74
2023/11/21 11:10:14;;;;;;;7.38;3.42;;;;;;;6.85;100.00;100681.22;5049238;28;20046;-73
2023/11/21 11:12:40;;;;;;;7.20;3.35;;;;;;;6.80;100.00;100643.66;5024190;28;20369;-74
2023/11/21 11:15:09;;;;;;;6.25;3.45;;;;;;;6.80;100.00;100681.63;5049372;28;20036;-74
2023/11/21 11:17:38;;;;;;;8.85;2.92;;;;;;;6.87;100.00;100714.59;5049348;28;20094;-74
2023/11/21 11:20:06;;;;;;;6.10;3.30;;;;;;;6.83;100.00;100744.19;5066939;28;20119;-73